createdAt,value
2023-01-26T00:01:15.159Z,142.77
2023-01-26T00:03:42.343Z,136.67
2023-01-26T00:06:11.542Z,135.90
2023-01-26T00:08:49.471Z,137.50
2023-01-26T00:11:19.610Z,140.37
2023-01-26T00:13:46.219Z,144.57
2023-01-26T00:16:15.809Z,146.07
2023-01-26T00:18:43.056Z,137.27
2023-01-26T00:21:14.543Z,142.30
2023-01-26T00:23:41.632Z,128.30
2023-01-26T00:26:11.152Z,135.13
2023-01-26T00:28:37.708Z,157.10
2023-01-26T00:31:06.632Z,148.30
2023-01-26T00:33:33.458Z,139.80
2023-01-26T00:36:00.355Z,151.03
2023-01-26T00:38:27.204Z,143.60
2023-01-26T00:40:53.888Z,139.43
2023-01-26T00:43:20.629Z,150.50
2023-01-26T00:45:47.345Z,145.67
2023-01-26T00:48:14.030Z,134.73
2023-01-26T00:50:40.587Z,145.70
2023-01-26T00:53:07.159Z,131.83
2023-01-26T00:55:33.809Z,149.93
2023-01-26T00:58:06.099Z,144.80
2023-01-26T01:00:34.320Z,126.07
2023-01-26T01:03:00.982Z,139.03
2023-01-26T01:05:30.504Z,145.33
2023-01-26T01:07:57.844Z,142.70
2023-01-26T01:10:27.301Z,142.03
2023-01-26T01:12:54.209Z,122.47
2023-01-26T01:15:20.813Z,142.17
2023-01-26T01:17:47.407Z,145.70
2023-01-26T01:20:14.234Z,134.27
2023-01-26T01:22:40.825Z,130.93
2023-01-26T01:25:07.802Z,128.43
2023-01-26T01:27:43.087Z,145.80
2023-01-26T01:30:10.827Z,122.53
2023-01-26T01:32:39.566Z,143.30
2023-01-26T01:35:06.989Z,144.80
2023-01-26T01:37:33.599Z,147.60
2023-01-26T01:40:00.414Z,144.83
2023-01-26T01:42:27.055Z,135.83
2023-01-26T01:45:21.585Z,142.87
2023-01-26T01:47:48.183Z,148.50
2023-01-26T01:50:18.315Z,128.27
2023-01-26T01:52:45.560Z,141.47
2023-01-26T01:55:14.862Z,147.40
2023-01-26T01:57:55.861Z,132.60
2023-01-26T02:00:23.910Z,139.00
2023-01-26T02:03:13.829Z,143.33
2023-01-26T02:06:01.293Z,133.37
2023-01-26T02:08:33.049Z,130.97
2023-01-26T02:11:04.374Z,130.10
2023-01-26T02:13:33.340Z,146.13
2023-01-26T02:16:00.727Z,138.80
2023-01-26T02:18:28.183Z,146.23
2023-01-26T02:21:07.093Z,135.63
2023-01-26T02:23:50.935Z,123.00
2023-01-26T02:26:28.918Z,125.30
2023-01-26T02:28:55.681Z,130.97
2023-01-26T02:31:23.376Z,139.37
2023-01-26T02:33:50.209Z,135.23
2023-01-26T02:36:23.806Z,135.23
2023-01-26T02:38:58.067Z,126.10
2023-01-26T02:41:43.187Z,120.50
2023-01-26T02:44:12.077Z,131.83
2023-01-26T02:46:38.739Z,118.97
2023-01-26T02:49:23.821Z,137.87
2023-01-26T02:51:50.411Z,135.20
2023-01-26T02:54:35.454Z,137.10
2023-01-26T02:57:02.039Z,133.00
2023-01-26T02:59:28.755Z,139.97
2023-01-26T03:01:57.538Z,136.10
2023-01-26T03:04:24.425Z,138.53
2023-01-26T03:06:51.224Z,127.90
2023-01-26T03:09:17.781Z,120.77
2023-01-26T03:11:44.569Z,125.60
2023-01-26T03:14:13.082Z,121.60
2023-01-26T03:16:40.416Z,133.90
2023-01-26T03:19:27.751Z,124.90
2023-01-26T03:22:13.207Z,129.43
2023-01-26T03:24:58.608Z,107.10
2023-01-26T03:27:28.203Z,124.30
2023-01-26T03:29:56.195Z,129.10
2023-01-26T03:32:23.487Z,134.80
2023-01-26T03:34:50.039Z,122.03
2023-01-26T03:37:21.973Z,113.07
2023-01-26T03:40:25.377Z,110.30
2023-01-26T03:43:10.356Z,120.73
2023-01-26T03:45:55.294Z,116.07
2023-01-26T03:48:40.620Z,124.40
2023-01-26T03:51:25.811Z,103.57
2023-01-26T03:54:11.171Z,112.30
2023-01-26T03:56:37.862Z,106.83
2023-01-26T03:59:09.536Z,114.53
2023-01-26T04:01:41.773Z,105.03
2023-01-26T04:04:29.357Z,118.13
2023-01-26T04:07:17.131Z,116.17
2023-01-26T04:09:46.817Z,104.57
2023-01-26T04:12:14.038Z,124.87
2023-01-26T04:14:59.466Z,115.57
2023-01-26T04:17:44.643Z,110.07
2023-01-26T04:20:30.056Z,110.60
2023-01-26T04:22:56.586Z,119.63
2023-01-26T04:25:25.935Z,115.97
2023-01-26T04:27:52.477Z,104.37
2023-01-26T04:30:19.815Z,119.00
2023-01-26T04:32:46.502Z,124.03
2023-01-26T04:35:16.258Z,112.33
2023-01-26T04:37:42.814Z,111.13
2023-01-26T04:40:10.544Z,109.37
2023-01-26T04:42:37.294Z,111.30
2023-01-26T04:45:04.134Z,108.83
2023-01-26T04:47:30.879Z,116.27
2023-01-26T04:49:57.441Z,104.20
2023-01-26T04:52:24.003Z,94.10
2023-01-26T04:54:50.926Z,97.50
2023-01-26T04:57:20.456Z,93.63
2023-01-26T04:59:47.096Z,102.80
2023-01-26T05:02:13.646Z,98.43
2023-01-26T05:04:40.233Z,105.43
2023-01-26T05:07:06.814Z,96.13
2023-01-26T05:09:33.394Z,97.40
2023-01-26T05:12:22.529Z,112.57
2023-01-26T05:14:49.081Z,113.40
2023-01-26T05:17:15.648Z,108.90
2023-01-26T05:19:42.246Z,108.20
2023-01-26T05:22:09.968Z,90.77
2023-01-26T05:24:38.215Z,95.23
2023-01-26T05:27:23.132Z,89.70
2023-01-26T05:29:50.680Z,82.00
2023-01-26T05:32:17.622Z,77.07
2023-01-26T05:34:44.248Z,79.30
2023-01-26T05:37:13.628Z,81.27
2023-01-26T05:39:41.198Z,90.93
2023-01-26T05:42:07.841Z,84.03
2023-01-26T05:44:34.406Z,88.63
2023-01-26T05:47:01.005Z,80.50
2023-01-26T05:49:27.564Z,80.00
2023-01-26T05:51:54.190Z,71.50
2023-01-26T05:54:20.791Z,77.90
2023-01-26T05:56:47.371Z,65.60
2023-01-26T05:59:14.345Z,80.43
2023-01-26T06:01:41.125Z,67.53
2023-01-26T06:04:08.156Z,77.40
2023-01-26T06:06:35.016Z,68.30
2023-01-26T06:09:01.720Z,69.17
2023-01-26T06:11:28.306Z,75.27
2023-01-26T06:13:54.849Z,74.93
2023-01-26T06:16:21.571Z,72.50
2023-01-26T06:18:49.725Z,69.40
2023-01-26T06:21:16.591Z,73.37
2023-01-26T06:23:43.213Z,67.80
2023-01-26T06:26:10.935Z,68.63
2023-01-26T06:28:37.605Z,57.50
2023-01-26T06:31:05.905Z,70.73
2023-01-26T06:33:34.834Z,70.40
2023-01-26T06:36:06.386Z,66.40
2023-01-26T06:38:33.216Z,67.73
2023-01-26T06:41:02.888Z,67.83
2023-01-26T06:43:31.153Z,65.20
2023-01-26T06:45:58.599Z,69.60
2023-01-26T06:48:26.582Z,70.27
2023-01-26T06:50:56.104Z,62.47
2023-01-26T06:53:40.027Z,62.60
2023-01-26T06:56:06.658Z,69.97
2023-01-26T06:58:33.234Z,65.30
2023-01-26T07:01:00.658Z,58.17
2023-01-26T07:03:27.231Z,61.13
2023-01-26T07:05:53.783Z,61.00
2023-01-26T07:08:20.367Z,58.47
2023-01-26T07:10:46.947Z,56.13
2023-01-26T07:13:13.527Z,65.13
2023-01-26T07:15:40.105Z,52.07
2023-01-26T07:18:06.687Z,58.20
2023-01-26T07:20:33.241Z,57.77
2023-01-26T07:23:00.790Z,56.67
2023-01-26T07:25:27.591Z,52.50
2023-01-26T07:27:58.285Z,56.70
2023-01-26T07:30:25.473Z,54.73
2023-01-26T07:32:52.043Z,51.30
2023-01-26T07:35:18.601Z,48.13
2023-01-26T07:37:45.170Z,58.53
2023-01-26T07:40:12.506Z,54.67
2023-01-26T07:42:39.301Z,50.17
2023-01-26T07:45:06.562Z,52.03
2023-01-26T07:47:33.140Z,55.73
2023-01-26T07:49:59.697Z,53.17
2023-01-26T07:52:26.564Z,58.27
2023-01-26T07:54:53.131Z,57.07
2023-01-26T07:57:19.672Z,57.60
2023-01-26T07:59:46.214Z,54.03
2023-01-26T08:02:12.880Z,63.70
2023-01-26T08:04:39.413Z,51.40
2023-01-26T08:07:05.963Z,55.83
2023-01-26T08:09:32.686Z,54.93
2023-01-26T08:11:59.294Z,52.47
2023-01-26T08:14:31.075Z,54.50
2023-01-26T08:17:02.462Z,51.63
2023-01-26T08:19:29.102Z,58.87
2023-01-26T08:21:57.528Z,54.87
2023-01-26T08:24:24.350Z,54.40
2023-01-26T08:26:50.946Z,67.80
2023-01-26T08:29:18.116Z,63.67
2023-01-26T08:31:44.749Z,66.50
2023-01-26T08:34:14.062Z,59.70
2023-01-26T08:36:40.764Z,56.93
2023-01-26T08:39:07.323Z,55.03
2023-01-26T08:41:34.008Z,58.17
2023-01-26T08:44:00.663Z,55.77
2023-01-26T08:46:29.483Z,50.13
2023-01-26T08:48:57.269Z,48.03
2023-01-26T08:51:24.783Z,58.57
2023-01-26T08:53:53.591Z,52.93
2023-01-26T08:56:20.581Z,48.20
2023-01-26T08:58:47.274Z,50.30
2023-01-26T09:01:16.096Z,45.77
2023-01-26T09:03:44.496Z,41.30
2023-01-26T09:06:13.499Z,36.40
2023-01-26T09:08:40.541Z,39.77
2023-01-26T09:11:08.215Z,44.80
2023-01-26T09:13:37.021Z,38.97
2023-01-26T09:16:05.003Z,37.80
2023-01-26T09:18:31.643Z,35.37
2023-01-26T09:21:09.083Z,40.73
2023-01-26T09:23:36.428Z,44.60
2023-01-26T09:26:03.637Z,37.57
2023-01-26T09:28:30.558Z,38.87
2023-01-26T09:30:57.257Z,31.23
2023-01-26T09:33:25.214Z,36.60
2023-01-26T09:35:51.832Z,34.43
2023-01-26T09:38:18.428Z,36.97
2023-01-26T09:41:03.206Z,37.10
2023-01-26T09:43:39.256Z,31.57
2023-01-26T09:46:33.596Z,31.07
2023-01-26T09:49:35.312Z,40.70
2023-01-26T09:52:51.444Z,38.20
2023-01-26T09:55:21.295Z,28.63
2023-01-26T09:58:03.739Z,37.40
2023-01-26T10:00:47.514Z,30.80
2023-01-26T10:03:31.920Z,29.23
2023-01-26T10:06:18.273Z,29.73
2023-01-26T10:08:45.148Z,31.07
2023-01-26T10:11:24.669Z,23.63
2023-01-26T10:13:57.246Z,25.87
2023-01-26T10:16:25.215Z,27.90
2023-01-26T10:18:59.251Z,30.07
2023-01-26T10:21:30.799Z,26.90
2023-01-26T10:24:00.744Z,19.33
2023-01-26T10:26:30.983Z,23.00
2023-01-26T10:28:58.182Z,20.60
2023-01-26T10:31:32.287Z,19.97
2023-01-26T10:34:03.257Z,23.00
2023-01-26T10:36:31.849Z,20.77
2023-01-26T10:39:09.831Z,19.93
2023-01-26T10:41:37.332Z,13.63
2023-01-26T10:44:24.230Z,15.00
2023-01-26T10:47:22.551Z,18.40
2023-01-26T10:49:49.468Z,16.47
2023-01-26T10:52:22.344Z,17.67
2023-01-26T10:54:53.725Z,21.10
2023-01-26T10:57:28.167Z,16.23
2023-01-26T11:00:08.067Z,23.67
2023-01-26T11:02:36.396Z,15.60
2023-01-26T11:05:09.072Z,19.93
2023-01-26T11:07:38.606Z,18.87
2023-01-26T11:10:29.791Z,20.07
2023-01-26T11:13:20.005Z,18.90
2023-01-26T11:15:49.257Z,23.27
2023-01-26T11:18:27.423Z,24.00
2023-01-26T11:21:08.143Z,24.27
2023-01-26T11:23:51.302Z,18.43
2023-01-26T11:26:30.586Z,23.30
2023-01-26T11:29:18.674Z,28.33
2023-01-26T11:31:57.448Z,24.93
2023-01-26T11:34:37.165Z,17.20
2023-01-26T11:37:36.781Z,23.10
2023-01-26T11:40:18.535Z,18.20
2023-01-26T11:43:13.421Z,19.70
2023-01-26T11:45:53.037Z,21.27
2023-01-26T11:48:23.006Z,22.73
2023-01-26T11:51:00.348Z,17.57
2023-01-26T11:53:50.711Z,24.87
2023-01-26T11:56:31.998Z,22.73
2023-01-26T11:59:17.986Z,19.90
2023-01-26T12:01:51.700Z,21.40
2023-01-26T12:04:20.767Z,20.70
2023-01-26T12:07:08.984Z,19.23
2023-01-26T12:09:42.643Z,15.60
2023-01-26T12:12:19.656Z,16.87
2023-01-26T12:15:17.229Z,21.33
2023-01-26T12:18:04.485Z,13.37
2023-01-26T12:20:31.035Z,14.77
2023-01-26T12:23:27.931Z,17.20
2023-01-26T12:26:03.211Z,16.33
2023-01-26T12:28:50.693Z,14.63
2023-01-26T12:31:38.429Z,13.87
2023-01-26T12:34:12.023Z,18.73
2023-01-26T12:37:10.545Z,14.20
2023-01-26T12:40:11.678Z,23.70
2023-01-26T12:43:03.590Z,19.47
2023-01-26T12:45:35.890Z,16.77
2023-01-26T12:48:13.322Z,12.97
2023-01-26T12:50:45.972Z,15.53
2023-01-26T12:53:33.988Z,17.60
2023-01-26T12:56:26.737Z,13.53
2023-01-26T12:58:55.424Z,14.40
2023-01-26T13:01:24.396Z,19.80
2023-01-26T13:04:02.286Z,15.03
2023-01-26T13:06:29.269Z,22.87
2023-01-26T13:09:04.479Z,25.30
2023-01-26T13:11:58.863Z,20.93
2023-01-26T13:14:26.486Z,18.87
2023-01-26T13:16:53.202Z,21.70
2023-01-26T13:19:37.065Z,20.50
2023-01-26T13:22:03.826Z,20.93
2023-01-26T13:24:30.431Z,20.60
2023-01-26T13:26:58.562Z,22.60
2023-01-26T13:29:25.114Z,23.33
2023-01-26T13:31:52.734Z,23.20
2023-01-26T13:34:39.493Z,29.83
2023-01-26T13:37:20.104Z,29.00
2023-01-26T13:39:55.037Z,33.33
2023-01-26T13:42:28.567Z,30.93
2023-01-26T13:45:02.879Z,38.33
2023-01-26T13:47:39.035Z,32.37
2023-01-26T13:50:34.546Z,31.63
2023-01-26T13:53:01.128Z,36.20
2023-01-26T13:55:31.787Z,30.80
2023-01-26T13:58:18.404Z,39.50
2023-01-26T14:01:04.187Z,48.27
2023-01-26T14:03:31.320Z,40.73
2023-01-26T14:06:02.407Z,53.77
2023-01-26T14:08:31.457Z,46.37
2023-01-26T14:10:59.314Z,45.57
2023-01-26T14:13:36.284Z,37.30
2023-01-26T14:16:08.466Z,42.87
2023-01-26T14:18:35.406Z,40.73
2023-01-26T14:21:05.605Z,47.67
2023-01-26T14:23:36.946Z,39.57
2023-01-26T14:26:11.875Z,40.23
2023-01-26T14:28:42.992Z,36.07
2023-01-26T14:31:18.450Z,36.67
2023-01-26T14:33:45.397Z,44.17
2023-01-26T14:36:18.226Z,48.60
2023-01-26T14:38:50.295Z,50.70
2023-01-26T14:41:22.711Z,49.90
2023-01-26T14:43:56.589Z,49.73
2023-01-26T14:46:31.683Z,42.30
2023-01-26T14:49:42.626Z,39.77
2023-01-26T14:52:27.225Z,34.27
2023-01-26T14:54:56.371Z,36.40
2023-01-26T14:57:27.359Z,42.67
2023-01-26T15:00:09.582Z,48.80
2023-01-26T15:02:42.656Z,40.50
2023-01-26T15:05:21.718Z,46.67
2023-01-26T15:07:58.909Z,43.60
2023-01-26T15:10:41.344Z,37.43
2023-01-26T15:13:10.626Z,40.13
2023-01-26T15:15:48.945Z,35.50
2023-01-26T15:18:20.831Z,33.80
2023-01-26T15:21:02.301Z,51.27
2023-01-26T15:23:37.349Z,35.30
2023-01-26T15:26:09.815Z,38.17
2023-01-26T15:28:38.553Z,52.27
2023-01-26T15:31:06.076Z,32.07
2023-01-26T15:33:50.999Z,38.60
2023-01-26T15:36:46.103Z,41.90
2023-01-26T15:39:15.085Z,29.30
2023-01-26T15:41:43.248Z,36.40
2023-01-26T15:44:20.199Z,38.23
2023-01-26T15:46:46.951Z,40.77
2023-01-26T15:49:14.073Z,41.13
2023-01-26T15:51:40.999Z,41.50
2023-01-26T15:54:10.046Z,53.93
2023-01-26T15:56:36.592Z,50.57
2023-01-26T15:59:03.647Z,56.70
2023-01-26T16:01:30.211Z,50.20
2023-01-26T16:03:56.774Z,60.73
2023-01-26T16:06:28.693Z,52.90
2023-01-26T16:08:57.107Z,53.73
2023-01-26T16:11:31.332Z,50.03
2023-01-26T16:14:03.574Z,69.93
2023-01-26T16:16:32.420Z,58.40
2023-01-26T16:18:59.299Z,63.57
2023-01-26T16:21:31.166Z,58.37
2023-01-26T16:23:57.834Z,59.47
2023-01-26T16:26:26.291Z,62.60
2023-01-26T16:28:53.039Z,63.93
2023-01-26T16:31:22.840Z,52.13
2023-01-26T16:33:49.995Z,54.37
2023-01-26T16:36:18.780Z,60.20
2023-01-26T16:38:46.366Z,54.07
2023-01-26T16:41:25.435Z,57.13
2023-01-26T16:43:57.311Z,61.13
2023-01-26T16:46:24.504Z,51.93
2023-01-26T16:48:51.712Z,66.67
2023-01-26T16:51:25.592Z,55.30
2023-01-26T16:53:52.593Z,51.10
2023-01-26T16:56:19.803Z,49.30
2023-01-26T16:58:46.800Z,43.93
2023-01-26T17:01:25.346Z,68.67
2023-01-26T17:03:52.131Z,55.97
2023-01-26T17:06:19.432Z,59.90
2023-01-26T17:08:46.919Z,56.20
2023-01-26T17:11:23.016Z,51.57
2023-01-26T17:13:50.200Z,57.90
2023-01-26T17:16:22.177Z,59.27
2023-01-26T17:18:49.258Z,50.50
2023-01-26T17:21:18.202Z,61.23
2023-01-26T17:23:47.744Z,42.63
2023-01-26T17:26:16.855Z,58.57
2023-01-26T17:28:44.733Z,68.17
2023-01-26T17:31:13.988Z,49.00
2023-01-26T17:33:40.624Z,47.33
2023-01-26T17:36:07.755Z,42.37
2023-01-26T17:38:34.420Z,47.93
2023-01-26T17:41:01.519Z,57.97
2023-01-26T17:43:28.461Z,49.17
2023-01-26T17:46:03.353Z,47.63
2023-01-26T17:48:30.152Z,75.80
2023-01-26T17:50:56.787Z,57.23
2023-01-26T17:53:27.916Z,61.00
2023-01-26T17:55:54.795Z,55.30
2023-01-26T17:58:21.613Z,66.50
2023-01-26T18:00:48.204Z,61.03
2023-01-26T18:03:16.737Z,63.27
2023-01-26T18:05:53.578Z,56.87
2023-01-26T18:08:20.223Z,76.13
2023-01-26T18:10:47.033Z,55.57
2023-01-26T18:13:14.498Z,59.77
2023-01-26T18:15:41.369Z,50.97
2023-01-26T18:18:08.125Z,47.43
2023-01-26T18:20:34.890Z,58.67
2023-01-26T18:23:01.556Z,48.63
2023-01-26T18:25:28.172Z,50.17
2023-01-26T18:27:54.721Z,51.17
2023-01-26T18:30:22.366Z,46.67
2023-01-26T18:32:49.009Z,51.83
2023-01-26T18:35:15.671Z,55.57
2023-01-26T18:37:42.216Z,58.90
2023-01-26T18:40:09.746Z,51.80
2023-01-26T18:42:36.294Z,56.67
2023-01-26T18:45:03.015Z,54.33
2023-01-26T18:47:30.973Z,58.30
2023-01-26T18:49:57.859Z,54.27
2023-01-26T18:52:24.777Z,53.77
2023-01-26T18:54:51.587Z,50.70
2023-01-26T18:57:18.817Z,52.37
2023-01-26T18:59:45.383Z,54.67
2023-01-26T19:02:15.367Z,50.93
2023-01-26T19:04:42.157Z,45.80
2023-01-26T19:07:10.006Z,58.27
2023-01-26T19:09:36.954Z,42.47
2023-01-26T19:12:04.556Z,56.50
2023-01-26T19:14:35.046Z,52.10
2023-01-26T19:17:01.950Z,46.70
2023-01-26T19:19:29.341Z,42.30
2023-01-26T19:21:56.227Z,47.80
2023-01-26T19:24:23.180Z,45.07
2023-01-26T19:26:49.854Z,50.10
2023-01-26T19:29:16.555Z,34.77
2023-01-26T19:31:43.310Z,34.40
2023-01-26T19:34:14.062Z,31.77
2023-01-26T19:36:40.882Z,23.50
2023-01-26T19:39:07.546Z,27.63
2023-01-26T19:41:34.645Z,18.40
2023-01-26T19:44:01.655Z,34.27
2023-01-26T19:46:28.446Z,19.93
2023-01-26T19:48:55.108Z,19.90
2023-01-26T19:51:24.842Z,17.83
2023-01-26T19:53:55.059Z,16.57
2023-01-26T19:56:33.044Z,20.20
2023-01-26T19:59:01.988Z,16.17
2023-01-26T20:01:31.124Z,23.27
2023-01-26T20:04:02.474Z,23.73
2023-01-26T20:06:32.985Z,13.53
2023-01-26T20:09:00.498Z,20.43
2023-01-26T20:11:29.360Z,11.63
2023-01-26T20:13:57.950Z,21.60
2023-01-26T20:16:27.977Z,12.77
2023-01-26T20:18:56.347Z,25.83
2023-01-26T20:21:23.623Z,15.17
2023-01-26T20:23:54.760Z,17.70
2023-01-26T20:26:24.034Z,17.20
2023-01-26T20:28:51.541Z,15.87
2023-01-26T20:31:21.434Z,14.07
2023-01-26T20:33:49.598Z,9.10
2023-01-26T20:36:19.366Z,12.43
2023-01-26T20:38:48.156Z,8.63
2023-01-26T20:41:17.715Z,21.17
2023-01-26T20:43:58.512Z,18.07
2023-01-26T20:46:31.421Z,12.60
2023-01-26T20:48:58.138Z,9.73
2023-01-26T20:51:29.383Z,9.00
2023-01-26T20:53:57.509Z,10.10
2023-01-26T20:56:24.273Z,15.07
2023-01-26T20:58:55.167Z,18.10
2023-01-26T21:01:22.938Z,14.30
2023-01-26T21:03:49.822Z,17.67
2023-01-26T21:06:21.297Z,12.53
2023-01-26T21:08:49.268Z,12.63
2023-01-26T21:11:17.037Z,9.17
2023-01-26T21:13:44.275Z,16.93
2023-01-26T21:16:14.132Z,13.17
2023-01-26T21:18:41.344Z,16.60
2023-01-26T21:21:11.632Z,14.70
2023-01-26T21:23:38.965Z,19.97
2023-01-26T21:26:12.040Z,9.83
2023-01-26T21:28:38.890Z,8.57
2023-01-26T21:31:18.723Z,8.80
2023-01-26T21:33:47.962Z,14.07
2023-01-26T21:36:17.537Z,11.40
2023-01-26T21:38:46.385Z,10.53
2023-01-26T21:41:34.394Z,11.60
2023-01-26T21:44:03.182Z,15.57
2023-01-26T21:46:31.023Z,11.60
2023-01-26T21:48:57.838Z,12.60
2023-01-26T21:51:43.995Z,11.83
2023-01-26T21:54:11.394Z,9.67
2023-01-26T21:56:38.049Z,8.00
2023-01-26T21:59:07.482Z,9.93
2023-01-26T22:01:36.766Z,11.37
2023-01-26T22:04:07.498Z,7.50
2023-01-26T22:06:34.920Z,9.07
2023-01-26T22:09:01.591Z,7.33
2023-01-26T22:11:28.633Z,8.83
2023-01-26T22:13:55.298Z,5.90
2023-01-26T22:16:22.268Z,7.80
2023-01-26T22:18:49.270Z,11.20
2023-01-26T22:21:17.184Z,7.13
2023-01-26T22:23:44.015Z,6.63
2023-01-26T22:26:16.261Z,5.93
2023-01-26T22:28:49.825Z,6.33
2023-01-26T22:31:19.630Z,8.50
2023-01-26T22:33:46.854Z,5.20
2023-01-26T22:36:13.523Z,11.37
2023-01-26T22:38:41.544Z,14.27
2023-01-26T22:41:11.541Z,8.10
2023-01-26T22:43:38.140Z,7.53
2023-01-26T22:46:09.666Z,7.70
2023-01-26T22:48:36.308Z,5.57
2023-01-26T22:51:10.806Z,6.50
2023-01-26T22:53:37.918Z,8.23
2023-01-26T22:56:05.700Z,7.10
2023-01-26T22:58:34.315Z,7.27
2023-01-26T23:01:14.624Z,9.87
2023-01-26T23:03:42.548Z,7.03
2023-01-26T23:06:13.911Z,6.93
2023-01-26T23:08:41.450Z,16.70
2023-01-26T23:11:14.442Z,8.87
2023-01-26T23:13:42.567Z,12.20
2023-01-26T23:16:09.799Z,7.10
2023-01-26T23:18:36.818Z,10.83
2023-01-26T23:21:03.956Z,6.30
2023-01-26T23:23:31.031Z,8.90
2023-01-26T23:25:58.794Z,8.27
2023-01-26T23:28:28.552Z,7.10
2023-01-26T23:30:56.483Z,10.67
2023-01-26T23:33:24.883Z,7.77
2023-01-26T23:35:51.934Z,9.20
2023-01-26T23:38:20.793Z,15.43
2023-01-26T23:40:49.542Z,13.60
2023-01-26T23:43:17.532Z,8.17
2023-01-26T23:45:45.866Z,8.87
2023-01-26T23:48:12.969Z,16.03
2023-01-26T23:50:39.635Z,16.03
2023-01-26T23:53:07.095Z,12.50
2023-01-26T23:55:33.987Z,12.50
2023-01-26T23:58:00.767Z,5.80
